createdAt,value
2023-04-19T00:02:10.919Z,98236.56
2023-04-19T00:07:16.940Z,98232.69
2023-04-19T00:12:20.242Z,98232.97
2023-04-19T00:17:23.493Z,98228.72
2023-04-19T00:22:27.955Z,98215.94
2023-04-19T00:27:31.086Z,98223.84
2023-04-19T00:32:35.699Z,98224.31
2023-04-19T00:37:40.195Z,98221.69
2023-04-19T00:42:43.578Z,98216.66
2023-04-19T00:47:48.513Z,98224.09
2023-04-19T00:52:55.072Z,98215.81
2023-04-19T00:58:01.176Z,98211.38
2023-04-19T01:03:05.081Z,98211.03
2023-04-19T01:08:09.867Z,98206.72
2023-04-19T01:13:13.173Z,98210.06
2023-04-19T01:18:16.367Z,98210.72
2023-04-19T01:23:21.441Z,98206.69
2023-04-19T01:28:25.744Z,98207.66
2023-04-19T01:33:28.957Z,98196.75
2023-04-19T01:38:35.049Z,98192.13
2023-04-19T01:43:38.156Z,98197.66
2023-04-19T01:48:41.197Z,98210.75
2023-04-19T01:53:45.813Z,98200.41
2023-04-19T01:58:49.105Z,98208.13
2023-04-19T02:03:52.922Z,98207.81
2023-04-19T02:08:58.339Z,98201.94
2023-04-19T02:14:02.063Z,98205.00
2023-04-19T02:19:05.696Z,98192.59
2023-04-19T02:24:11.653Z,98194.72
2023-04-19T02:29:16.911Z,98184.34
2023-04-19T02:34:20.157Z,98190.00
2023-04-19T02:39:24.848Z,98185.81
2023-04-19T02:44:28.270Z,98189.47
2023-04-19T02:49:36.322Z,98188.00
2023-04-19T02:54:42.200Z,98191.66
2023-04-19T02:59:45.619Z,98187.00
2023-04-19T03:04:49.468Z,98188.75
2023-04-19T03:09:54.562Z,98190.59
2023-04-19T03:14:57.806Z,98184.88
2023-04-19T03:20:02.952Z,98182.59
2023-04-19T03:25:09.062Z,98177.66
2023-04-19T03:30:14.049Z,98179.53
2023-04-19T03:35:19.478Z,98170.28
2023-04-19T03:40:25.087Z,98168.31
2023-04-19T03:45:28.541Z,98161.63
2023-04-19T03:50:32.107Z,98162.94
2023-04-19T03:55:37.657Z,98172.72
2023-04-19T04:00:40.933Z,98168.53
2023-04-19T04:05:44.985Z,98160.53
2023-04-19T04:10:49.539Z,98163.66
2023-04-19T04:15:53.966Z,98164.81
2023-04-19T04:20:57.728Z,98156.22
2023-04-19T04:26:04.962Z,98166.88
2023-04-19T04:31:21.253Z,98168.97
2023-04-19T04:36:26.939Z,98162.31
2023-04-19T04:41:33.005Z,98167.69
2023-04-19T04:46:36.224Z,98172.59
2023-04-19T04:51:39.590Z,98178.53
2023-04-19T04:56:44.304Z,98182.16
2023-04-19T05:01:48.672Z,98183.34
2023-04-19T05:06:52.839Z,98184.69
2023-04-19T05:12:02.729Z,98181.59
2023-04-19T05:17:07.520Z,98190.03
2023-04-19T05:22:11.681Z,98183.69
2023-04-19T05:27:17.713Z,98175.28
2023-04-19T05:32:21.131Z,98185.41
2023-04-19T05:37:30.620Z,98173.41
2023-04-19T05:42:35.369Z,98173.91
2023-04-19T05:47:39.809Z,98157.44
2023-04-19T05:52:51.739Z,98149.22
2023-04-19T05:57:57.663Z,98161.00
2023-04-19T06:03:02.625Z,98155.94
2023-04-19T06:08:07.117Z,98150.38
2023-04-19T06:13:11.626Z,98161.47
2023-04-19T06:18:18.936Z,98161.06
2023-04-19T06:23:23.597Z,98167.97
2023-04-19T06:28:28.071Z,98169.19
2023-04-19T06:33:31.359Z,98171.50
2023-04-19T06:38:34.960Z,98175.13
2023-04-19T06:43:40.936Z,98180.69
2023-04-19T06:48:44.184Z,98166.84
2023-04-19T06:53:47.447Z,98162.47
2023-04-19T06:58:51.928Z,98153.59
2023-04-19T07:03:57.375Z,98163.81
2023-04-19T07:09:01.125Z,98161.28
2023-04-19T07:14:05.809Z,98163.38
2023-04-19T07:19:09.107Z,98167.72
2023-04-19T07:24:12.546Z,98172.31
2023-04-19T07:29:17.189Z,98172.19
2023-04-19T07:34:20.294Z,98169.78
2023-04-19T07:39:23.490Z,98179.44
2023-04-19T07:44:28.676Z,98169.50
2023-04-19T07:49:34.246Z,98162.50
2023-04-19T07:54:39.218Z,98166.00
2023-04-19T07:59:43.939Z,98162.34
2023-04-19T08:04:48.403Z,98156.63
2023-04-19T08:09:51.812Z,98129.81
2023-04-19T08:15:02.621Z,98137.06
2023-04-19T08:20:09.678Z,98121.41
2023-04-19T08:25:12.857Z,98124.63
2023-04-19T08:30:18.170Z,98118.94
2023-04-19T08:35:22.084Z,98136.81
2023-04-19T08:40:25.543Z,98120.13
2023-04-19T08:45:31.516Z,98120.16
2023-04-19T08:50:45.603Z,98119.94
2023-04-19T08:56:12.652Z,98114.63
2023-04-19T09:01:34.548Z,98101.56
2023-04-19T09:06:38.855Z,98095.94
2023-04-19T09:11:42.396Z,98092.63
2023-04-19T09:16:47.434Z,98074.75
2023-04-19T09:21:51.975Z,98067.72
2023-04-19T09:26:57.964Z,98071.03
2023-04-19T09:32:02.723Z,98059.66
2023-04-19T09:37:28.088Z,98067.38
2023-04-19T09:48:04.304Z,98063.06
2023-04-19T09:53:08.072Z,98069.63
2023-04-19T09:58:11.232Z,98044.59
2023-04-19T10:03:17.202Z,98045.88
2023-04-19T10:08:20.932Z,98042.16
2023-04-19T10:13:26.786Z,98029.84
2023-04-19T10:18:33.426Z,98031.53
2023-04-19T10:23:38.375Z,98029.13
2023-04-19T10:28:43.131Z,98022.94
2023-04-19T10:33:49.543Z,98002.91
2023-04-19T10:38:53.729Z,97988.78
2023-04-19T10:44:11.067Z,97983.03
2023-04-19T10:49:15.813Z,97971.88
2023-04-19T10:54:32.600Z,97971.38
2023-04-19T10:59:36.806Z,97964.47
2023-04-19T11:05:04.649Z,97964.09
2023-04-19T11:10:09.174Z,97952.88
2023-04-19T11:15:12.479Z,97941.31
2023-04-19T11:20:17.258Z,97937.00
2023-04-19T11:25:21.855Z,97924.00
2023-04-19T11:30:30.829Z,97932.66
2023-04-19T11:35:36.809Z,97919.28
2023-04-19T11:40:40.019Z,97921.09
2023-04-19T11:45:43.111Z,97915.66
2023-04-19T11:50:49.563Z,97914.50
2023-04-19T11:55:54.583Z,97921.94
2023-04-19T12:01:00.958Z,97899.84
2023-04-19T12:06:09.142Z,97891.56
2023-04-19T12:11:12.637Z,97897.66
2023-04-19T12:16:15.865Z,97892.66
2023-04-19T12:21:27.930Z,97900.06
2023-04-19T12:26:33.997Z,97907.25
2023-04-19T12:31:37.506Z,97894.25
2023-04-19T12:36:42.239Z,97872.47
2023-04-19T12:41:45.759Z,97876.66
2023-04-19T12:46:49.218Z,97866.16
2023-04-19T12:51:55.829Z,97858.19
2023-04-19T12:57:03.382Z,97868.88
2023-04-19T13:02:07.639Z,97867.06
2023-04-19T13:07:12.734Z,97858.31
2023-04-19T13:12:16.033Z,97862.13
2023-04-19T13:17:19.940Z,97869.34
2023-04-19T13:22:24.794Z,97854.94
2023-04-19T13:27:28.710Z,97849.97
2023-04-19T13:32:32.597Z,97849.28
2023-04-19T13:37:37.652Z,97851.63
2023-04-19T13:42:40.918Z,97819.84
2023-04-19T13:47:46.158Z,97807.56
2023-04-19T13:52:53.817Z,97813.56
2023-04-19T13:58:02.517Z,97800.41
2023-04-19T14:03:08.712Z,97780.66
2023-04-19T14:08:13.540Z,97784.41
2023-04-19T14:13:19.196Z,97766.72
2023-04-19T14:18:30.256Z,97768.63
2023-04-19T14:23:39.251Z,97765.38
2023-04-19T14:28:42.962Z,97758.22
2023-04-19T14:33:46.166Z,97744.41
2023-04-19T14:38:50.903Z,97757.56
2023-04-19T14:43:56.127Z,97776.38
2023-04-19T14:49:05.860Z,97791.13
2023-04-19T14:54:10.634Z,97778.13
2023-04-19T14:59:14.245Z,97775.75
2023-04-19T15:04:17.965Z,97776.97
2023-04-19T15:09:22.804Z,97775.28
2023-04-19T15:14:27.960Z,97759.84
2023-04-19T15:19:32.169Z,97758.88
2023-04-19T15:24:37.482Z,97750.81
2023-04-19T15:29:41.312Z,97733.75
2023-04-19T15:34:45.028Z,97742.84
2023-04-19T15:39:50.397Z,97740.41
2023-04-19T15:44:53.811Z,97752.78
2023-04-19T15:49:57.398Z,97783.22
2023-04-19T15:55:06.741Z,97756.66
2023-04-19T16:00:10.867Z,97765.47
2023-04-19T16:05:18.525Z,97760.59
2023-04-19T16:10:23.235Z,97756.25
2023-04-19T16:15:26.462Z,97749.72
2023-04-19T16:20:30.197Z,97726.75
2023-04-19T16:25:35.527Z,97736.56
2023-04-19T16:30:38.787Z,97741.88
2023-04-19T16:35:42.366Z,97740.94
2023-04-19T16:40:48.734Z,97739.59
2023-04-19T16:45:52.073Z,97736.53
2023-04-19T16:50:55.195Z,97735.06
2023-04-19T16:56:03.344Z,97734.22
2023-04-19T17:01:09.311Z,97721.31
2023-04-19T17:06:12.957Z,97720.03
2023-04-19T17:11:17.996Z,97717.00
2023-04-19T17:16:21.363Z,97711.44
2023-04-19T17:21:24.706Z,97710.53
2023-04-19T17:26:29.798Z,97707.06
2023-04-19T17:31:33.290Z,97706.34
2023-04-19T17:36:38.690Z,97693.97
2023-04-19T17:41:44.713Z,97694.91
2023-04-19T17:46:47.899Z,97689.75
2023-04-19T17:51:51.104Z,97694.97
2023-04-19T17:56:55.734Z,97683.63
2023-04-19T18:01:59.096Z,97690.09
2023-04-19T18:07:03.608Z,97690.63
2023-04-19T18:12:08.588Z,97691.78
2023-04-19T18:17:11.850Z,97693.19
2023-04-19T18:22:18.257Z,97691.81
2023-04-19T18:27:24.439Z,97691.06
2023-04-19T18:32:32.194Z,97690.84
2023-04-19T18:37:39.841Z,97688.75
2023-04-19T18:42:47.024Z,97679.94
2023-04-19T18:47:50.401Z,97680.47
2023-04-19T18:52:54.685Z,97677.00
2023-04-19T18:58:02.378Z,97676.41
2023-04-19T19:03:12.103Z,97669.41
2023-04-19T19:08:31.287Z,97676.34
2023-04-19T19:13:36.225Z,97699.72
2023-04-19T19:18:39.408Z,97686.59
2023-04-19T19:23:42.971Z,97681.53
2023-04-19T19:28:49.380Z,97668.47
2023-04-19T19:34:14.733Z,97664.88
2023-04-19T19:39:23.643Z,97679.84
2023-04-19T19:44:30.088Z,97670.47
2023-04-19T19:49:47.364Z,97686.19
2023-04-19T19:54:57.051Z,97708.63
2023-04-19T20:05:16.737Z,97727.13
2023-04-19T20:10:20.848Z,97723.53
2023-04-19T20:15:26.222Z,97736.47
2023-04-19T20:20:35.233Z,97742.69
2023-04-19T20:25:40.752Z,97728.22
2023-04-19T20:30:47.265Z,97726.47
2023-04-19T20:35:53.741Z,97718.81
2023-04-19T20:40:57.658Z,97723.59
2023-04-19T20:46:03.524Z,97732.31
2023-04-19T20:51:07.089Z,97720.06
2023-04-19T20:56:10.377Z,97714.97
2023-04-19T21:01:17.506Z,97716.94
2023-04-19T21:06:23.133Z,97714.19
2023-04-19T21:11:26.855Z,97716.81
2023-04-19T21:16:31.611Z,97720.06
2023-04-19T21:21:35.164Z,97710.00
2023-04-19T21:26:38.551Z,97714.53
2023-04-19T21:31:43.315Z,97710.97
2023-04-19T21:36:46.741Z,97702.66
2023-04-19T21:41:49.969Z,97696.72
2023-04-19T21:46:54.674Z,97696.88
2023-04-19T21:51:58.328Z,97691.16
2023-04-19T21:57:02.051Z,97691.06
2023-04-19T22:02:06.716Z,97685.66
2023-04-19T22:07:11.509Z,97684.03
2023-04-19T22:12:14.710Z,97678.03
2023-04-19T22:17:19.643Z,97672.69
2023-04-19T22:22:23.105Z,97663.31
2023-04-19T22:27:26.519Z,97652.56
2023-04-19T22:32:31.262Z,97650.97
2023-04-19T22:37:34.585Z,97644.78
2023-04-19T22:42:38.263Z,97636.06
2023-04-19T22:47:42.967Z,97629.78
2023-04-19T22:52:46.279Z,97620.22
2023-04-19T22:57:49.530Z,97625.31
2023-04-19T23:02:54.269Z,97612.47
2023-04-19T23:07:59.543Z,97609.88
2023-04-19T23:13:02.721Z,97593.47
2023-04-19T23:18:07.489Z,97576.22
2023-04-19T23:23:10.762Z,97579.44
2023-04-19T23:28:14.031Z,97577.03
2023-04-19T23:33:18.447Z,97572.44
2023-04-19T23:38:21.614Z,97572.63
2023-04-19T23:43:24.734Z,97557.72
2023-04-19T23:48:29.357Z,97557.13
2023-04-19T23:53:32.472Z,97547.06
2023-04-19T23:58:35.879Z,97552.06
